sensor_id;sensor_type;location;lat;lon;timestamp;temperature;humidity
1011;DHT22;494;48.744;10.106;2022-09-20T00:01:37;10.90;59.20
1011;DHT22;494;48.744;10.106;2022-09-20T00:04:06;10.90;59.40
1011;DHT22;494;48.744;10.106;2022-09-20T00:06:35;10.80;59.60
1011;DHT22;494;48.744;10.106;2022-09-20T00:09:04;10.80;59.70
1011;DHT22;494;48.744;10.106;2022-09-20T00:11:34;10.60;60.00
1011;DHT22;494;48.744;10.106;2022-09-20T00:14:05;10.60;60.40
1011;DHT22;494;48.744;10.106;2022-09-20T00:16:38;10.70;60.30
1011;DHT22;494;48.744;10.106;2022-09-20T00:19:08;10.80;60.00
1011;DHT22;494;48.744;10.106;2022-09-20T00:21:44;10.80;59.60
1011;DHT22;494;48.744;10.106;2022-09-20T00:24:14;10.80;59.60
1011;DHT22;494;48.744;10.106;2022-09-20T00:26:43;10.80;59.70
1011;DHT22;494;48.744;10.106;2022-09-20T00:29:11;10.90;59.50
1011;DHT22;494;48.744;10.106;2022-09-20T00:31:40;11.00;59.20
1011;DHT22;494;48.744;10.106;2022-09-20T00:34:09;11.00;58.70
1011;DHT22;494;48.744;10.106;2022-09-20T00:37:10;11.00;58.30
1011;DHT22;494;48.744;10.106;2022-09-20T00:39:40;11.00;57.40
1011;DHT22;494;48.744;10.106;2022-09-20T00:42:11;10.80;57.40
1011;DHT22;494;48.744;10.106;2022-09-20T00:44:53;10.80;57.70
1011;DHT22;494;48.744;10.106;2022-09-20T00:47:33;10.70;58.00
1011;DHT22;494;48.744;10.106;2022-09-20T00:50:15;10.70;58.30
1011;DHT22;494;48.744;10.106;2022-09-20T00:52:56;10.60;58.50
1011;DHT22;494;48.744;10.106;2022-09-20T00:55:28;10.60;58.90
1011;DHT22;494;48.744;10.106;2022-09-20T00:57:57;10.60;59.10
1011;DHT22;494;48.744;10.106;2022-09-20T01:00:27;10.60;59.20
1011;DHT22;494;48.744;10.106;2022-09-20T01:02:59;10.70;59.10
1011;DHT22;494;48.744;10.106;2022-09-20T01:05:31;10.70;59.10
1011;DHT22;494;48.744;10.106;2022-09-20T01:08:00;10.70;58.80
1011;DHT22;494;48.744;10.106;2022-09-20T01:10:32;10.80;58.10
1011;DHT22;494;48.744;10.106;2022-09-20T01:13:00;10.80;58.20
1011;DHT22;494;48.744;10.106;2022-09-20T01:15:30;10.70;58.20
1011;DHT22;494;48.744;10.106;2022-09-20T01:18:02;10.70;58.20
1011;DHT22;494;48.744;10.106;2022-09-20T01:20:36;10.70;57.90
1011;DHT22;494;48.744;10.106;2022-09-20T01:23:30;10.70;57.90
1011;DHT22;494;48.744;10.106;2022-09-20T01:29:38;10.60;57.60
1011;DHT22;494;48.744;10.106;2022-09-20T01:32:19;10.60;57.30
1011;DHT22;494;48.744;10.106;2022-09-20T01:34:53;10.60;57.10
1011;DHT22;494;48.744;10.106;2022-09-20T01:37:29;10.50;57.10
1011;DHT22;494;48.744;10.106;2022-09-20T01:40:08;10.40;57.20
1011;DHT22;494;48.744;10.106;2022-09-20T01:42:54;10.40;57.60
1011;DHT22;494;48.744;10.106;2022-09-20T01:45:33;10.30;57.70
1011;DHT22;494;48.744;10.106;2022-09-20T01:48:08;10.30;57.70
1011;DHT22;494;48.744;10.106;2022-09-20T01:50:57;10.40;57.50
1011;DHT22;494;48.744;10.106;2022-09-20T01:54:09;10.40;57.20
1011;DHT22;494;48.744;10.106;2022-09-20T01:57:15;10.50;57.10
1011;DHT22;494;48.744;10.106;2022-09-20T02:00:12;10.50;56.70
1011;DHT22;494;48.744;10.106;2022-09-20T02:06:17;10.60;56.50
1011;DHT22;494;48.744;10.106;2022-09-20T02:12:32;10.70;56.50
1011;DHT22;494;48.744;10.106;2022-09-20T02:15:27;10.70;56.30
1011;DHT22;494;48.744;10.106;2022-09-20T02:18:19;10.80;56.00
1011;DHT22;494;48.744;10.106;2022-09-20T02:21:10;10.70;56.20
1011;DHT22;494;48.744;10.106;2022-09-20T02:23:54;10.80;56.30
1011;DHT22;494;48.744;10.106;2022-09-20T02:26:35;10.80;56.10
1011;DHT22;494;48.744;10.106;2022-09-20T02:29:19;10.90;55.90
1011;DHT22;494;48.744;10.106;2022-09-20T02:32:16;10.90;55.90
1011;DHT22;494;48.744;10.106;2022-09-20T02:35:17;10.90;55.80
1011;DHT22;494;48.744;10.106;2022-09-20T02:37:58;11.00;55.60
1011;DHT22;494;48.744;10.106;2022-09-20T02:40:52;11.00;55.40
1011;DHT22;494;48.744;10.106;2022-09-20T02:43:37;10.90;55.40
1011;DHT22;494;48.744;10.106;2022-09-20T02:46:15;11.00;55.40
1011;DHT22;494;48.744;10.106;2022-09-20T02:48:56;10.90;56.00
1011;DHT22;494;48.744;10.106;2022-09-20T02:51:39;11.00;55.40
1011;DHT22;494;48.744;10.106;2022-09-20T02:54:19;11.00;55.30
1011;DHT22;494;48.744;10.106;2022-09-20T02:56:58;11.00;55.40
1011;DHT22;494;48.744;10.106;2022-09-20T02:59:39;11.00;55.40
1011;DHT22;494;48.744;10.106;2022-09-20T03:02:19;11.00;55.40
1011;DHT22;494;48.744;10.106;2022-09-20T03:05:02;11.00;55.30
1011;DHT22;494;48.744;10.106;2022-09-20T03:07:50;11.00;55.30
1011;DHT22;494;48.744;10.106;2022-09-20T03:10:34;11.00;55.40
1011;DHT22;494;48.744;10.106;2022-09-20T03:13:18;11.00;55.50
1011;DHT22;494;48.744;10.106;2022-09-20T03:16:03;11.10;55.50
1011;DHT22;494;48.744;10.106;2022-09-20T03:18:47;11.10;55.50
1011;DHT22;494;48.744;10.106;2022-09-20T03:21:29;11.10;55.50
1011;DHT22;494;48.744;10.106;2022-09-20T03:24:19;11.10;56.00
1011;DHT22;494;48.744;10.106;2022-09-20T03:26:57;11.10;55.40
1011;DHT22;494;48.744;10.106;2022-09-20T03:29:44;11.10;55.30
1011;DHT22;494;48.744;10.106;2022-09-20T03:32:37;11.10;55.40
1011;DHT22;494;48.744;10.106;2022-09-20T03:35:34;11.10;55.50
1011;DHT22;494;48.744;10.106;2022-09-20T03:38:31;11.20;55.30
1011;DHT22;494;48.744;10.106;2022-09-20T03:41:25;11.20;55.20
1011;DHT22;494;48.744;10.106;2022-09-20T03:44:25;11.10;54.90
1011;DHT22;494;48.744;10.106;2022-09-20T03:47:20;11.10;55.00
1011;DHT22;494;48.744;10.106;2022-09-20T03:50:15;11.10;55.00
1011;DHT22;494;48.744;10.106;2022-09-20T03:53:35;11.10;54.80
1011;DHT22;494;48.744;10.106;2022-09-20T04:03:18;10.80;55.50
1011;DHT22;494;48.744;10.106;2022-09-20T04:06:17;10.80;55.80
1011;DHT22;494;48.744;10.106;2022-09-20T04:12:01;10.70;56.20
1011;DHT22;494;48.744;10.106;2022-09-20T04:14:41;10.70;56.30
1011;DHT22;494;48.744;10.106;2022-09-20T04:17:24;10.60;56.50
1011;DHT22;494;48.744;10.106;2022-09-20T04:20:02;10.60;56.60
1011;DHT22;494;48.744;10.106;2022-09-20T04:22:42;10.60;56.60
1011;DHT22;494;48.744;10.106;2022-09-20T04:25:17;10.40;56.80
1011;DHT22;494;48.744;10.106;2022-09-20T04:27:51;10.40;57.80
1011;DHT22;494;48.744;10.106;2022-09-20T04:30:25;10.40;57.30
1011;DHT22;494;48.744;10.106;2022-09-20T04:32:59;10.40;57.50
1011;DHT22;494;48.744;10.106;2022-09-20T04:35:37;10.30;58.00
1011;DHT22;494;48.744;10.106;2022-09-20T04:38:28;10.40;58.10
1011;DHT22;494;48.744;10.106;2022-09-20T04:41:17;10.20;58.80
1011;DHT22;494;48.744;10.106;2022-09-20T04:44:29;10.20;60.10
1011;DHT22;494;48.744;10.106;2022-09-20T04:47:42;10.10;60.90
1011;DHT22;494;48.744;10.106;2022-09-20T04:50:40;10.20;61.20
1011;DHT22;494;48.744;10.106;2022-09-20T04:53:56;10.30;61.10
1011;DHT22;494;48.744;10.106;2022-09-20T04:56:46;10.20;60.90
1011;DHT22;494;48.744;10.106;2022-09-20T04:59:43;10.30;61.00
1011;DHT22;494;48.744;10.106;2022-09-20T05:02:55;10.30;61.00
1011;DHT22;494;48.744;10.106;2022-09-20T05:06:12;10.40;60.70
1011;DHT22;494;48.744;10.106;2022-09-20T05:09:19;10.50;60.60
1011;DHT22;494;48.744;10.106;2022-09-20T05:15:37;10.40;61.20
1011;DHT22;494;48.744;10.106;2022-09-20T05:22:07;10.60;61.40
1011;DHT22;494;48.744;10.106;2022-09-20T05:28:24;10.80;60.50
1011;DHT22;494;48.744;10.106;2022-09-20T05:31:03;10.90;60.50
1011;DHT22;494;48.744;10.106;2022-09-20T05:33:42;11.00;60.40
1011;DHT22;494;48.744;10.106;2022-09-20T05:36:19;11.00;59.80
1011;DHT22;494;48.744;10.106;2022-09-20T05:39:09;11.00;59.90
1011;DHT22;494;48.744;10.106;2022-09-20T05:41:51;11.10;60.10
1011;DHT22;494;48.744;10.106;2022-09-20T05:44:30;11.10;59.50
1011;DHT22;494;48.744;10.106;2022-09-20T05:47:16;11.10;59.30
1011;DHT22;494;48.744;10.106;2022-09-20T05:49:56;11.10;59.80
1011;DHT22;494;48.744;10.106;2022-09-20T05:52:40;11.10;59.90
1011;DHT22;494;48.744;10.106;2022-09-20T05:55:45;11.00;59.60
1011;DHT22;494;48.744;10.106;2022-09-20T05:58:41;11.00;60.30
1011;DHT22;494;48.744;10.106;2022-09-20T06:01:20;11.10;60.30
1011;DHT22;494;48.744;10.106;2022-09-20T06:03:59;11.10;60.30
1011;DHT22;494;48.744;10.106;2022-09-20T06:06:46;11.10;60.40
1011;DHT22;494;48.744;10.106;2022-09-20T06:09:44;11.20;60.40
1011;DHT22;494;48.744;10.106;2022-09-20T06:12:38;11.20;59.90
1011;DHT22;494;48.744;10.106;2022-09-20T06:15:25;11.30;59.90
1011;DHT22;494;48.744;10.106;2022-09-20T06:18:13;11.20;59.40
1011;DHT22;494;48.744;10.106;2022-09-20T06:20:59;11.20;59.80
1011;DHT22;494;48.744;10.106;2022-09-20T06:23:36;11.10;59.90
1011;DHT22;494;48.744;10.106;2022-09-20T06:26:09;11.20;60.10
1011;DHT22;494;48.744;10.106;2022-09-20T06:28:46;11.40;60.20
1011;DHT22;494;48.744;10.106;2022-09-20T06:31:24;11.40;58.70
1011;DHT22;494;48.744;10.106;2022-09-20T06:33:56;11.30;58.00
1011;DHT22;494;48.744;10.106;2022-09-20T06:36:32;11.40;59.20
1011;DHT22;494;48.744;10.106;2022-09-20T06:39:27;11.60;59.10
1011;DHT22;494;48.744;10.106;2022-09-20T06:42:22;11.70;58.30
1011;DHT22;494;48.744;10.106;2022-09-20T06:44:53;11.70;57.60
1011;DHT22;494;48.744;10.106;2022-09-20T06:47:21;11.70;57.10
1011;DHT22;494;48.744;10.106;2022-09-20T06:49:52;11.60;56.90
1011;DHT22;494;48.744;10.106;2022-09-20T06:52:22;11.50;57.40
1011;DHT22;494;48.744;10.106;2022-09-20T06:54:53;11.50;57.40
1011;DHT22;494;48.744;10.106;2022-09-20T06:57:32;11.70;57.70
1011;DHT22;494;48.744;10.106;2022-09-20T07:00:04;11.80;57.10
1011;DHT22;494;48.744;10.106;2022-09-20T07:02:37;11.90;56.70
1011;DHT22;494;48.744;10.106;2022-09-20T07:05:08;12.00;55.50
1011;DHT22;494;48.744;10.106;2022-09-20T07:07:42;12.00;53.90
1011;DHT22;494;48.744;10.106;2022-09-20T07:10:13;12.00;55.30
1011;DHT22;494;48.744;10.106;2022-09-20T07:12:42;12.20;54.60
1011;DHT22;494;48.744;10.106;2022-09-20T07:15:12;12.50;54.00
1011;DHT22;494;48.744;10.106;2022-09-20T07:17:43;12.80;53.30
1011;DHT22;494;48.744;10.106;2022-09-20T07:20:12;13.10;52.90
1011;DHT22;494;48.744;10.106;2022-09-20T07:22:49;13.40;50.10
1011;DHT22;494;48.744;10.106;2022-09-20T07:25:18;13.50;45.90
1011;DHT22;494;48.744;10.106;2022-09-20T07:27:48;13.70;47.90
1011;DHT22;494;48.744;10.106;2022-09-20T07:30:18;14.00;45.00
1011;DHT22;494;48.744;10.106;2022-09-20T07:32:47;14.20;44.70
1011;DHT22;494;48.744;10.106;2022-09-20T07:35:16;14.50;43.40
1011;DHT22;494;48.744;10.106;2022-09-20T07:37:44;14.70;41.00
1011;DHT22;494;48.744;10.106;2022-09-20T07:40:15;14.80;41.50
1011;DHT22;494;48.744;10.106;2022-09-20T07:42:44;14.60;42.10
1011;DHT22;494;48.744;10.106;2022-09-20T07:45:12;14.40;41.50
1011;DHT22;494;48.744;10.106;2022-09-20T07:47:41;14.10;43.60
1011;DHT22;494;48.744;10.106;2022-09-20T07:50:10;14.00;43.90
1011;DHT22;494;48.744;10.106;2022-09-20T07:52:39;14.00;43.20
1011;DHT22;494;48.744;10.106;2022-09-20T07:55:08;14.00;43.20
1011;DHT22;494;48.744;10.106;2022-09-20T07:57:37;14.00;41.10
1011;DHT22;494;48.744;10.106;2022-09-20T08:00:08;13.90;41.20
1011;DHT22;494;48.744;10.106;2022-09-20T08:02:37;13.90;42.00
1011;DHT22;494;48.744;10.106;2022-09-20T08:05:05;14.00;41.30
1011;DHT22;494;48.744;10.106;2022-09-20T08:07:35;13.90;40.10
1011;DHT22;494;48.744;10.106;2022-09-20T08:10:05;13.80;41.50
1011;DHT22;494;48.744;10.106;2022-09-20T08:12:34;13.90;40.90
1011;DHT22;494;48.744;10.106;2022-09-20T08:15:24;13.90;40.10
1011;DHT22;494;48.744;10.106;2022-09-20T08:17:52;14.00;40.60
1011;DHT22;494;48.744;10.106;2022-09-20T08:20:21;14.20;39.70
1011;DHT22;494;48.744;10.106;2022-09-20T08:22:49;14.40;41.30
1011;DHT22;494;48.744;10.106;2022-09-20T08:25:38;14.60;39.30
1011;DHT22;494;48.744;10.106;2022-09-20T08:28:06;14.70;39.00
1011;DHT22;494;48.744;10.106;2022-09-20T08:30:36;14.80;37.40
1011;DHT22;494;48.744;10.106;2022-09-20T08:33:05;14.60;37.20
1011;DHT22;494;48.744;10.106;2022-09-20T08:35:34;14.60;37.50
1011;DHT22;494;48.744;10.106;2022-09-20T08:38:04;14.50;38.00
1011;DHT22;494;48.744;10.106;2022-09-20T08:40:57;14.50;37.90
1011;DHT22;494;48.744;10.106;2022-09-20T08:43:33;14.60;38.60
1011;DHT22;494;48.744;10.106;2022-09-20T08:46:11;14.60;37.30
1011;DHT22;494;48.744;10.106;2022-09-20T08:48:41;14.40;37.30
1011;DHT22;494;48.744;10.106;2022-09-20T08:51:14;14.30;38.40
1011;DHT22;494;48.744;10.106;2022-09-20T08:53:52;14.40;37.80
1011;DHT22;494;48.744;10.106;2022-09-20T08:56:33;14.50;37.00
1011;DHT22;494;48.744;10.106;2022-09-20T08:59:04;14.60;37.40
1011;DHT22;494;48.744;10.106;2022-09-20T09:01:37;14.80;36.90
1011;DHT22;494;48.744;10.106;2022-09-20T09:04:11;15.00;36.10
1011;DHT22;494;48.744;10.106;2022-09-20T09:06:42;15.30;34.60
1011;DHT22;494;48.744;10.106;2022-09-20T09:09:16;15.20;33.70
1011;DHT22;494;48.744;10.106;2022-09-20T09:11:47;15.30;33.80
1011;DHT22;494;48.744;10.106;2022-09-20T09:14:23;15.40;32.00
1011;DHT22;494;48.744;10.106;2022-09-20T09:17:13;15.60;33.20
1011;DHT22;494;48.744;10.106;2022-09-20T09:19:45;15.80;32.10
1011;DHT22;494;48.744;10.106;2022-09-20T09:22:21;15.70;29.60
1011;DHT22;494;48.744;10.106;2022-09-20T09:25:19;16.00;31.00
1011;DHT22;494;48.744;10.106;2022-09-20T09:27:52;16.20;29.40
1011;DHT22;494;48.744;10.106;2022-09-20T09:30:25;16.40;29.80
1011;DHT22;494;48.744;10.106;2022-09-20T09:33:21;16.50;29.90
1011;DHT22;494;48.744;10.106;2022-09-20T09:35:57;16.80;29.10
1011;DHT22;494;48.744;10.106;2022-09-20T09:38:28;17.00;27.90
1011;DHT22;494;48.744;10.106;2022-09-20T09:40:59;17.10;28.40
1011;DHT22;494;48.744;10.106;2022-09-20T09:43:30;17.20;27.10
1011;DHT22;494;48.744;10.106;2022-09-20T09:46:18;17.30;25.60
1011;DHT22;494;48.744;10.106;2022-09-20T09:49:04;17.30;24.50
1011;DHT22;494;48.744;10.106;2022-09-20T09:51:39;17.20;25.00
1011;DHT22;494;48.744;10.106;2022-09-20T09:54:15;17.00;23.90
1011;DHT22;494;48.744;10.106;2022-09-20T09:56:54;16.90;24.70
1011;DHT22;494;48.744;10.106;2022-09-20T09:59:45;16.80;24.70
1011;DHT22;494;48.744;10.106;2022-09-20T10:02:48;16.50;25.30
1011;DHT22;494;48.744;10.106;2022-09-20T10:05:31;16.50;26.70
1011;DHT22;494;48.744;10.106;2022-09-20T10:08:15;17.00;26.00
1011;DHT22;494;48.744;10.106;2022-09-20T10:11:01;17.50;24.00
1011;DHT22;494;48.744;10.106;2022-09-20T10:13:45;18.20;22.30
1011;DHT22;494;48.744;10.106;2022-09-20T10:16:31;18.90;17.70
1011;DHT22;494;48.744;10.106;2022-09-20T10:19:15;18.90;17.50
1011;DHT22;494;48.744;10.106;2022-09-20T10:21:56;18.70;17.80
1011;DHT22;494;48.744;10.106;2022-09-20T10:24:40;18.60;17.90
1011;DHT22;494;48.744;10.106;2022-09-20T10:27:25;18.40;19.40
1011;DHT22;494;48.744;10.106;2022-09-20T10:30:09;18.40;19.00
1011;DHT22;494;48.744;10.106;2022-09-20T10:32:57;18.40;20.10
1011;DHT22;494;48.744;10.106;2022-09-20T10:35:44;18.80;19.40
1011;DHT22;494;48.744;10.106;2022-09-20T10:38:29;19.20;17.30
1011;DHT22;494;48.744;10.106;2022-09-20T10:41:09;19.20;17.00
1011;DHT22;494;48.744;10.106;2022-09-20T10:47:14;18.60;17.00
1011;DHT22;494;48.744;10.106;2022-09-20T10:49:54;18.10;18.40
1011;DHT22;494;48.744;10.106;2022-09-20T10:52:43;17.80;19.70
1011;DHT22;494;48.744;10.106;2022-09-20T10:55:34;18.50;16.80
1011;DHT22;494;48.744;10.106;2022-09-20T11:01:32;20.00;14.60
1011;DHT22;494;48.744;10.106;2022-09-20T11:04:36;21.20;11.10
1011;DHT22;494;48.744;10.106;2022-09-20T11:07:29;22.40;9.50
1011;DHT22;494;48.744;10.106;2022-09-20T11:10:15;22.50;9.80
1011;DHT22;494;48.744;10.106;2022-09-20T11:12:53;23.30;8.60
1011;DHT22;494;48.744;10.106;2022-09-20T11:15:30;23.20;7.80
1011;DHT22;494;48.744;10.106;2022-09-20T11:18:06;22.10;9.60
1011;DHT22;494;48.744;10.106;2022-09-20T11:20:43;20.80;12.20
1011;DHT22;494;48.744;10.106;2022-09-20T11:23:20;19.70;14.90
1011;DHT22;494;48.744;10.106;2022-09-20T11:25:54;18.80;16.90
1011;DHT22;494;48.744;10.106;2022-09-20T11:28:33;18.90;16.70
1011;DHT22;494;48.744;10.106;2022-09-20T11:31:10;20.20;14.70
1011;DHT22;494;48.744;10.106;2022-09-20T11:33:48;21.70;12.00
1011;DHT22;494;48.744;10.106;2022-09-20T11:36:24;22.80;10.60
1011;DHT22;494;48.744;10.106;2022-09-20T11:39:01;23.00;9.40
1011;DHT22;494;48.744;10.106;2022-09-20T11:41:33;22.80;10.30
1011;DHT22;494;48.744;10.106;2022-09-20T11:44:06;22.50;9.10
1011;DHT22;494;48.744;10.106;2022-09-20T11:46:41;21.80;10.20
1011;DHT22;494;48.744;10.106;2022-09-20T11:49:18;21.20;11.50
1011;DHT22;494;48.744;10.106;2022-09-20T11:52:15;20.80;12.40
1011;DHT22;494;48.744;10.106;2022-09-20T11:55:16;20.40;13.30
1011;DHT22;494;48.744;10.106;2022-09-20T11:58:00;20.20;13.80
1011;DHT22;494;48.744;10.106;2022-09-20T12:00:37;19.90;13.30
1011;DHT22;494;48.744;10.106;2022-09-20T12:03:21;19.80;13.60
1011;DHT22;494;48.744;10.106;2022-09-20T12:05:59;20.30;13.20
1011;DHT22;494;48.744;10.106;2022-09-20T12:08:31;21.00;10.70
1011;DHT22;494;48.744;10.106;2022-09-20T12:11:04;22.40;9.00
1011;DHT22;494;48.744;10.106;2022-09-20T12:13:35;22.90;7.60
1011;DHT22;494;48.744;10.106;2022-09-20T12:16:11;22.90;8.20
1011;DHT22;494;48.744;10.106;2022-09-20T12:19:01;23.30;8.20
1011;DHT22;494;48.744;10.106;2022-09-20T12:22:14;23.60;8.00
1011;DHT22;494;48.744;10.106;2022-09-20T12:25:33;24.10;7.30
1011;DHT22;494;48.744;10.106;2022-09-20T12:28:13;23.10;7.70
1011;DHT22;494;48.744;10.106;2022-09-20T12:30:43;22.00;9.70
1011;DHT22;494;48.744;10.106;2022-09-20T12:33:19;21.40;10.30
1011;DHT22;494;48.744;10.106;2022-09-20T12:35:52;20.80;11.30
1011;DHT22;494;48.744;10.106;2022-09-20T12:41:17;19.90;13.50
1011;DHT22;494;48.744;10.106;2022-09-20T12:44:01;19.90;14.40
1011;DHT22;494;48.744;10.106;2022-09-20T12:46:39;19.80;13.70
1011;DHT22;494;48.744;10.106;2022-09-20T12:49:36;19.70;13.30
1011;DHT22;494;48.744;10.106;2022-09-20T12:52:31;19.80;13.30
1011;DHT22;494;48.744;10.106;2022-09-20T12:55:42;19.60;13.60
1011;DHT22;494;48.744;10.106;2022-09-20T12:58:33;19.70;14.50
1011;DHT22;494;48.744;10.106;2022-09-20T13:01:26;19.60;13.90
1011;DHT22;494;48.744;10.106;2022-09-20T13:04:40;19.40;13.50
1011;DHT22;494;48.744;10.106;2022-09-20T13:07:42;19.20;14.50
1011;DHT22;494;48.744;10.106;2022-09-20T13:10:24;19.00;15.50
1011;DHT22;494;48.744;10.106;2022-09-20T13:13:09;18.70;16.00
1011;DHT22;494;48.744;10.106;2022-09-20T13:15:54;18.50;16.20
1011;DHT22;494;48.744;10.106;2022-09-20T13:18:25;18.20;17.50
1011;DHT22;494;48.744;10.106;2022-09-20T13:20:57;18.00;18.40
1011;DHT22;494;48.744;10.106;2022-09-20T13:23:29;17.90;18.80
1011;DHT22;494;48.744;10.106;2022-09-20T13:26:00;17.80;19.40
1011;DHT22;494;48.744;10.106;2022-09-20T13:28:36;17.60;19.90
1011;DHT22;494;48.744;10.106;2022-09-20T13:31:22;17.40;19.70
1011;DHT22;494;48.744;10.106;2022-09-20T13:34:22;17.20;21.10
1011;DHT22;494;48.744;10.106;2022-09-20T13:36:56;17.00;21.00
1011;DHT22;494;48.744;10.106;2022-09-20T13:39:29;16.80;22.10
1011;DHT22;494;48.744;10.106;2022-09-20T13:42:07;16.70;22.00
1011;DHT22;494;48.744;10.106;2022-09-20T13:44:46;16.80;22.60
1011;DHT22;494;48.744;10.106;2022-09-20T13:47:23;17.00;22.80
1011;DHT22;494;48.744;10.106;2022-09-20T13:49:59;17.60;21.40
1011;DHT22;494;48.744;10.106;2022-09-20T13:52:30;19.30;17.30
1011;DHT22;494;48.744;10.106;2022-09-20T13:54:59;20.60;15.10
1011;DHT22;494;48.744;10.106;2022-09-20T13:57:47;21.10;14.70
1011;DHT22;494;48.744;10.106;2022-09-20T14:00:16;21.30;14.20
1011;DHT22;494;48.744;10.106;2022-09-20T14:02:47;21.30;14.10
1011;DHT22;494;48.744;10.106;2022-09-20T14:05:18;20.90;13.20
1011;DHT22;494;48.744;10.106;2022-09-20T14:07:49;20.40;12.20
1011;DHT22;494;48.744;10.106;2022-09-20T14:10:30;20.00;13.40
1011;DHT22;494;48.744;10.106;2022-09-20T14:13:04;19.60;14.10
1011;DHT22;494;48.744;10.106;2022-09-20T14:15:37;19.20;14.50
1011;DHT22;494;48.744;10.106;2022-09-20T14:18:12;18.90;15.70
1011;DHT22;494;48.744;10.106;2022-09-20T14:20:44;18.80;16.00
1011;DHT22;494;48.744;10.106;2022-09-20T14:23:21;19.00;15.60
1011;DHT22;494;48.744;10.106;2022-09-20T14:26:19;19.20;15.60
1011;DHT22;494;48.744;10.106;2022-09-20T14:28:50;19.80;15.30
1011;DHT22;494;48.744;10.106;2022-09-20T14:31:22;19.90;15.30
1011;DHT22;494;48.744;10.106;2022-09-20T14:33:54;20.10;15.30
1011;DHT22;494;48.744;10.106;2022-09-20T14:36:27;21.10;13.60
1011;DHT22;494;48.744;10.106;2022-09-20T14:39:02;21.40;12.50
1011;DHT22;494;48.744;10.106;2022-09-20T14:41:34;21.60;12.40
1011;DHT22;494;48.744;10.106;2022-09-20T14:44:15;21.80;12.80
1011;DHT22;494;48.744;10.106;2022-09-20T14:46:48;22.80;10.70
1011;DHT22;494;48.744;10.106;2022-09-20T14:49:31;24.10;8.90
1011;DHT22;494;48.744;10.106;2022-09-20T14:52:28;25.40;7.80
1011;DHT22;494;48.744;10.106;2022-09-20T14:55:17;26.10;6.40
1011;DHT22;494;48.744;10.106;2022-09-20T14:57:58;26.30;6.20
1011;DHT22;494;48.744;10.106;2022-09-20T15:00:29;26.30;5.50
1011;DHT22;494;48.744;10.106;2022-09-20T15:03:02;26.10;5.80
1011;DHT22;494;48.744;10.106;2022-09-20T15:05:35;25.60;6.40
1011;DHT22;494;48.744;10.106;2022-09-20T15:08:03;24.40;8.20
1011;DHT22;494;48.744;10.106;2022-09-20T15:10:33;23.20;9.70
1011;DHT22;494;48.744;10.106;2022-09-20T15:13:02;22.10;11.40
1011;DHT22;494;48.744;10.106;2022-09-20T15:15:31;21.40;12.30
1011;DHT22;494;48.744;10.106;2022-09-20T15:18:08;20.80;13.50
1011;DHT22;494;48.744;10.106;2022-09-20T15:20:50;20.20;14.80
1011;DHT22;494;48.744;10.106;2022-09-20T15:23:28;19.90;15.20
1011;DHT22;494;48.744;10.106;2022-09-20T15:25:59;20.00;14.50
1011;DHT22;494;48.744;10.106;2022-09-20T15:28:27;20.70;14.00
1011;DHT22;494;48.744;10.106;2022-09-20T15:30:58;21.60;12.30
1011;DHT22;494;48.744;10.106;2022-09-20T15:33:29;21.90;11.70
1011;DHT22;494;48.744;10.106;2022-09-20T15:36:00;22.30;10.90
1011;DHT22;494;48.744;10.106;2022-09-20T15:38:29;22.30;10.60
1011;DHT22;494;48.744;10.106;2022-09-20T15:41:01;21.90;11.80
1011;DHT22;494;48.744;10.106;2022-09-20T15:43:30;21.30;13.40
1011;DHT22;494;48.744;10.106;2022-09-20T15:46:04;20.70;14.40
1011;DHT22;494;48.744;10.106;2022-09-20T15:48:45;20.30;15.50
1011;DHT22;494;48.744;10.106;2022-09-20T15:51:14;20.10;15.60
1011;DHT22;494;48.744;10.106;2022-09-20T15:53:43;20.20;15.60
1011;DHT22;494;48.744;10.106;2022-09-20T15:56:17;20.70;15.10
1011;DHT22;494;48.744;10.106;2022-09-20T15:58:48;21.20;13.90
1011;DHT22;494;48.744;10.106;2022-09-20T16:01:18;21.80;12.00
1011;DHT22;494;48.744;10.106;2022-09-20T16:03:46;22.10;13.40
1011;DHT22;494;48.744;10.106;2022-09-20T16:06:16;21.80;13.60
1011;DHT22;494;48.744;10.106;2022-09-20T16:08:45;21.60;14.30
1011;DHT22;494;48.744;10.106;2022-09-20T16:11:17;21.10;14.90
1011;DHT22;494;48.744;10.106;2022-09-20T16:13:52;20.70;15.90
1011;DHT22;494;48.744;10.106;2022-09-20T16:16:21;20.60;15.70
1011;DHT22;494;48.744;10.106;2022-09-20T16:18:50;20.30;16.60
1011;DHT22;494;48.744;10.106;2022-09-20T16:21:37;20.20;16.70
1011;DHT22;494;48.744;10.106;2022-09-20T16:24:07;20.20;17.00
1011;DHT22;494;48.744;10.106;2022-09-20T16:26:39;20.20;16.90
1011;DHT22;494;48.744;10.106;2022-09-20T16:29:09;20.30;16.40
1011;DHT22;494;48.744;10.106;2022-09-20T16:31:39;20.30;17.30
1011;DHT22;494;48.744;10.106;2022-09-20T16:34:13;20.40;17.00
1011;DHT22;494;48.744;10.106;2022-09-20T16:36:44;20.50;17.10
1011;DHT22;494;48.744;10.106;2022-09-20T16:39:14;20.60;16.80
1011;DHT22;494;48.744;10.106;2022-09-20T16:41:47;20.30;17.30
1011;DHT22;494;48.744;10.106;2022-09-20T16:44:16;19.90;17.90
1011;DHT22;494;48.744;10.106;2022-09-20T16:46:45;19.00;19.10
1011;DHT22;494;48.744;10.106;2022-09-20T16:49:13;18.40;21.10
1011;DHT22;494;48.744;10.106;2022-09-20T16:51:43;17.70;23.30
1011;DHT22;494;48.744;10.106;2022-09-20T16:54:14;16.90;25.50
1011;DHT22;494;48.744;10.106;2022-09-20T16:56:46;16.30;28.50
1011;DHT22;494;48.744;10.106;2022-09-20T16:59:17;15.70;31.20
1011;DHT22;494;48.744;10.106;2022-09-20T17:01:47;15.30;32.00
1011;DHT22;494;48.744;10.106;2022-09-20T17:04:17;15.20;32.50
1011;DHT22;494;48.744;10.106;2022-09-20T17:06:48;15.10;32.70
1011;DHT22;494;48.744;10.106;2022-09-20T17:09:17;15.00;33.20
1011;DHT22;494;48.744;10.106;2022-09-20T17:11:48;14.90;33.90
1011;DHT22;494;48.744;10.106;2022-09-20T17:14:18;14.90;34.50
1011;DHT22;494;48.744;10.106;2022-09-20T17:16:48;14.60;35.20
1011;DHT22;494;48.744;10.106;2022-09-20T17:19:18;14.50;36.20
1011;DHT22;494;48.744;10.106;2022-09-20T17:21:48;14.30;37.60
1011;DHT22;494;48.744;10.106;2022-09-20T17:24:18;14.10;38.00
1011;DHT22;494;48.744;10.106;2022-09-20T17:26:49;14.00;38.60
1011;DHT22;494;48.744;10.106;2022-09-20T17:29:20;13.90;39.20
1011;DHT22;494;48.744;10.106;2022-09-20T17:31:49;13.80;39.20
1011;DHT22;494;48.744;10.106;2022-09-20T17:34:24;13.80;40.40
1011;DHT22;494;48.744;10.106;2022-09-20T17:36:53;13.50;40.80
1011;DHT22;494;48.744;10.106;2022-09-20T17:39:22;13.40;41.80
1011;DHT22;494;48.744;10.106;2022-09-20T17:41:52;13.20;42.80
1011;DHT22;494;48.744;10.106;2022-09-20T17:44:20;13.20;42.20
1011;DHT22;494;48.744;10.106;2022-09-20T17:46:50;13.20;42.20
1011;DHT22;494;48.744;10.106;2022-09-20T17:49:21;13.10;42.70
1011;DHT22;494;48.744;10.106;2022-09-20T17:51:53;12.90;43.20
1011;DHT22;494;48.744;10.106;2022-09-20T17:54:23;12.80;43.40
1011;DHT22;494;48.744;10.106;2022-09-20T17:56:53;12.70;43.70
1011;DHT22;494;48.744;10.106;2022-09-20T17:59:22;12.50;44.10